createdAt,value
2023-11-09T00:00:29.100Z,95368.69
2023-11-09T00:02:55.855Z,95356.66
2023-11-09T00:05:22.809Z,95358.47
2023-11-09T00:07:51.032Z,95354.06
2023-11-09T00:10:17.824Z,95353.94
2023-11-09T00:12:45.071Z,95352.28
2023-11-09T00:15:11.844Z,95354.88
2023-11-09T00:17:38.844Z,95346.16
2023-11-09T00:20:06.951Z,95347.78
2023-11-09T00:22:33.704Z,95347.47
2023-11-09T00:25:01.880Z,95348.28
2023-11-09T00:27:28.678Z,95345.88
2023-11-09T00:29:55.418Z,95344.47
2023-11-09T00:32:22.218Z,95343.34
2023-11-09T00:34:49.255Z,95343.34
2023-11-09T00:37:16.147Z,95333.63
2023-11-09T00:39:42.984Z,95335.72
2023-11-09T00:42:11.091Z,95333.78
2023-11-09T00:44:37.826Z,95329.56
2023-11-09T00:47:04.796Z,95328.44
2023-11-09T00:49:31.610Z,95326.50
2023-11-09T00:51:58.371Z,95326.66
2023-11-09T00:54:26.329Z,95331.53
2023-11-09T00:56:53.034Z,95324.56
2023-11-09T00:59:21.411Z,95329.63
2023-11-09T01:01:48.156Z,95321.97
2023-11-09T01:04:15.056Z,95322.94
2023-11-09T01:06:41.944Z,95320.81
2023-11-09T01:09:08.774Z,95320.16
2023-11-09T01:11:35.488Z,95322.53
2023-11-09T01:14:02.229Z,95323.31
2023-11-09T01:16:30.399Z,95317.09
2023-11-09T01:18:57.280Z,95316.59
2023-11-09T01:21:24.026Z,95310.09
2023-11-09T01:23:50.799Z,95299.03
2023-11-09T01:26:17.509Z,95295.94
2023-11-09T01:28:44.286Z,95295.56
2023-11-09T01:31:11.069Z,95298.78
2023-11-09T01:33:39.316Z,95293.75
2023-11-09T01:36:06.245Z,95287.41
2023-11-09T01:38:33.018Z,95289.63
2023-11-09T01:40:59.798Z,95285.72
2023-11-09T01:43:26.680Z,95292.97
2023-11-09T01:45:53.579Z,95293.81
2023-11-09T01:48:21.682Z,95292.97
2023-11-09T01:50:51.100Z,95291.03
2023-11-09T01:53:17.890Z,95289.94
2023-11-09T01:55:44.757Z,95288.50
2023-11-09T01:58:12.070Z,95280.59
2023-11-09T02:00:39.617Z,95278.50
2023-11-09T02:03:06.515Z,95273.97
2023-11-09T02:05:34.831Z,95271.91
2023-11-09T02:08:03.271Z,95272.53
2023-11-09T02:10:30.291Z,95269.81
2023-11-09T02:12:57.076Z,95272.22
2023-11-09T02:15:23.801Z,95265.94
2023-11-09T02:17:50.819Z,95261.13
2023-11-09T02:20:17.648Z,95255.75
2023-11-09T02:22:45.840Z,95250.44
2023-11-09T02:25:14.020Z,95245.25
2023-11-09T02:27:40.779Z,95245.25
2023-11-09T02:30:08.495Z,95248.78
2023-11-09T02:32:35.250Z,95246.19
2023-11-09T02:35:02.196Z,95235.81
2023-11-09T02:37:29.017Z,95237.47
2023-11-09T02:39:55.935Z,95237.97
2023-11-09T02:42:24.062Z,95238.78
2023-11-09T02:44:51.025Z,95231.97
2023-11-09T02:47:17.731Z,95229.03
2023-11-09T02:49:44.512Z,95225.50
2023-11-09T02:52:11.284Z,95218.53
2023-11-09T02:54:38.088Z,95219.03
2023-11-09T02:57:05.306Z,95222.94
2023-11-09T02:59:33.410Z,95211.75
2023-11-09T03:02:00.197Z,95210.78
2023-11-09T03:04:27.087Z,95213.22
2023-11-09T03:06:53.983Z,95199.44
2023-11-09T03:09:20.729Z,95217.75
2023-11-09T03:11:47.434Z,95197.13
2023-11-09T03:14:14.426Z,95198.28
2023-11-09T03:16:42.543Z,95202.47
2023-11-09T03:19:09.348Z,95206.97
2023-11-09T03:21:36.344Z,95200.47
2023-11-09T03:24:03.194Z,95206.28
2023-11-09T03:26:29.946Z,95205.44
2023-11-09T03:28:56.646Z,95201.97
2023-11-09T03:31:23.482Z,95199.34
2023-11-09T03:33:51.864Z,95201.25
2023-11-09T03:36:18.752Z,95201.06
2023-11-09T03:38:45.510Z,95199.75
2023-11-09T03:41:12.323Z,95194.66
2023-11-09T03:43:39.102Z,95196.09
2023-11-09T03:46:06.886Z,95187.13
2023-11-09T03:48:33.715Z,95193.22
2023-11-09T03:51:01.829Z,95188.19
2023-11-09T03:53:28.558Z,95182.78
2023-11-09T03:55:55.286Z,95183.69
2023-11-09T03:58:22.083Z,95171.72
2023-11-09T04:00:48.947Z,95167.31
2023-11-09T04:03:15.797Z,95172.25
2023-11-09T04:05:42.545Z,95169.81
2023-11-09T04:08:12.428Z,95172.03
2023-11-09T04:10:39.193Z,95169.06
2023-11-09T04:13:06.088Z,95165.72
2023-11-09T04:15:32.852Z,95161.59
2023-11-09T04:17:59.690Z,95160.78
2023-11-09T04:20:26.470Z,95163.53
2023-11-09T04:22:53.187Z,95167.66
2023-11-09T04:25:21.333Z,95165.06
2023-11-09T04:27:48.041Z,95158.94
2023-11-09T04:30:15.251Z,95147.56
2023-11-09T04:32:42.073Z,95147.03
2023-11-09T04:35:09.028Z,95145.09
2023-11-09T04:37:35.781Z,95146.75
2023-11-09T04:40:02.597Z,95141.94
2023-11-09T04:42:31.003Z,95144.81
2023-11-09T04:44:57.856Z,95133.13
2023-11-09T04:47:25.560Z,95144.91
2023-11-09T04:49:52.539Z,95136.44
2023-11-09T04:52:19.332Z,95121.75
2023-11-09T04:54:46.174Z,95123.69
2023-11-09T04:57:14.009Z,95126.41
2023-11-09T04:59:42.103Z,95118.78
2023-11-09T05:02:08.943Z,95124.13
2023-11-09T05:04:35.875Z,95122.09
2023-11-09T05:07:02.657Z,95113.69
2023-11-09T05:09:29.469Z,95115.03
2023-11-09T05:11:56.224Z,95116.63
2023-11-09T05:14:23.022Z,95106.44
2023-11-09T05:16:51.142Z,95107.41
2023-11-09T05:19:17.918Z,95096.03
2023-11-09T05:21:44.636Z,95100.38
2023-11-09T05:24:11.446Z,95093.28
2023-11-09T05:26:38.166Z,95088.09
2023-11-09T05:29:05.059Z,95084.19
2023-11-09T05:31:33.468Z,95071.56
2023-11-09T05:34:01.671Z,95070.75
2023-11-09T05:36:30.813Z,95075.25
2023-11-09T05:38:57.528Z,95066.69
2023-11-09T05:41:24.284Z,95070.53
2023-11-09T05:43:51.035Z,95068.69
2023-11-09T05:46:17.842Z,95067.56
2023-11-09T05:48:44.622Z,95067.56
2023-11-09T05:51:12.778Z,95068.69
2023-11-09T05:53:39.508Z,95064.47
2023-11-09T05:56:06.727Z,95062.81
2023-11-09T05:58:33.554Z,95060.41
2023-11-09T06:01:00.385Z,95068.16
2023-11-09T06:03:27.247Z,95064.50
2023-11-09T06:05:54.052Z,95066.13
2023-11-09T06:08:22.197Z,95062.59
2023-11-09T06:10:49.038Z,95065.47
2023-11-09T06:13:15.784Z,95057.34
2023-11-09T06:15:42.511Z,95062.78
2023-11-09T06:18:09.333Z,95062.28
2023-11-09T06:20:36.109Z,95062.00
2023-11-09T06:23:02.831Z,95061.44
2023-11-09T06:25:31.060Z,95061.19
2023-11-09T06:27:57.825Z,95058.00
2023-11-09T06:30:24.617Z,95059.22
2023-11-09T06:32:51.398Z,95055.66
2023-11-09T06:35:18.280Z,95053.72
2023-11-09T06:37:45.100Z,95060.53
2023-11-09T06:40:13.227Z,95064.88
2023-11-09T06:42:41.512Z,95074.94
2023-11-09T06:45:08.521Z,95089.50
2023-11-09T06:47:35.277Z,95098.59
2023-11-09T06:50:02.471Z,95083.28
2023-11-09T06:52:29.332Z,95086.56
2023-11-09T06:54:56.091Z,95094.97
2023-11-09T06:57:22.822Z,95090.84
2023-11-09T06:59:51.126Z,95090.78
2023-11-09T07:02:17.843Z,95091.53
2023-11-09T07:04:44.764Z,95085.75
2023-11-09T07:07:11.564Z,95079.69
2023-11-09T07:09:38.317Z,95073.56
2023-11-09T07:12:05.530Z,95068.31
2023-11-09T07:14:32.266Z,95067.91
2023-11-09T07:17:00.397Z,95066.03
2023-11-09T07:19:28.369Z,95069.34
2023-11-09T07:21:55.070Z,95063.53
2023-11-09T07:24:21.863Z,95070.72
2023-11-09T07:26:48.575Z,95070.09
2023-11-09T07:29:15.321Z,95077.91
2023-11-09T07:31:42.264Z,95070.50
2023-11-09T07:34:10.513Z,95059.38
2023-11-09T07:36:37.271Z,95061.03
2023-11-09T07:39:06.208Z,95056.72
2023-11-09T07:41:33.258Z,95067.16
2023-11-09T07:43:59.974Z,95063.34
2023-11-09T07:46:26.742Z,95065.28
2023-11-09T07:48:53.505Z,95072.47
2023-11-09T07:51:21.679Z,95074.44
2023-11-09T07:53:48.400Z,95055.47
2023-11-09T07:56:15.321Z,95065.41
2023-11-09T07:58:42.036Z,95061.34
2023-11-09T08:01:08.886Z,95054.53
2023-11-09T08:03:35.776Z,95051.25
2023-11-09T08:06:02.675Z,95049.94
2023-11-09T08:08:30.878Z,95049.75
2023-11-09T08:10:57.840Z,95046.81
2023-11-09T08:13:24.629Z,95045.16
2023-11-09T08:15:51.393Z,95042.38
2023-11-09T08:18:18.189Z,95048.03
2023-11-09T08:20:44.924Z,95054.31
2023-11-09T08:23:11.677Z,95052.81
2023-11-09T08:25:39.884Z,95046.97
2023-11-09T08:28:06.705Z,95043.34
2023-11-09T08:30:33.613Z,95043.97
2023-11-09T08:33:00.425Z,95046.88
2023-11-09T08:35:27.273Z,95050.94
2023-11-09T08:37:54.015Z,95054.69
2023-11-09T08:40:21.225Z,95062.44
2023-11-09T08:42:49.907Z,95057.81
2023-11-09T08:45:17.064Z,95060.09
2023-11-09T08:47:44.176Z,95064.09
2023-11-09T08:50:10.981Z,95069.31
2023-11-09T08:52:40.962Z,95063.97
2023-11-09T08:55:08.299Z,95061.84
2023-11-09T08:57:36.253Z,95063.84
2023-11-09T09:00:05.478Z,95055.22
2023-11-09T09:02:32.325Z,95050.97
2023-11-09T09:04:59.475Z,95050.03
2023-11-09T09:07:26.340Z,95061.75
2023-11-09T09:09:53.299Z,95061.38
2023-11-09T09:12:20.049Z,95064.19
2023-11-09T09:14:47.008Z,95053.41
2023-11-09T09:17:15.303Z,95064.81
2023-11-09T09:19:42.095Z,95059.72
2023-11-09T09:22:08.935Z,95063.94
2023-11-09T09:24:35.679Z,95063.47
2023-11-09T09:27:02.470Z,95058.47
2023-11-09T09:29:31.049Z,95057.25
2023-11-09T09:31:58.150Z,95061.13
2023-11-09T09:34:26.388Z,95066.63
2023-11-09T09:36:53.104Z,95076.25
2023-11-09T09:39:19.875Z,95070.66
2023-11-09T09:41:46.600Z,95075.16
2023-11-09T09:44:13.304Z,95072.78
2023-11-09T09:46:40.786Z,95079.84
2023-11-09T09:49:07.609Z,95080.31
2023-11-09T09:51:37.177Z,95089.34
2023-11-09T09:54:04.422Z,95084.84
2023-11-09T09:56:31.478Z,95088.13
2023-11-09T09:58:58.343Z,95084.50
2023-11-09T10:01:25.636Z,95093.00
2023-11-09T10:03:53.421Z,95087.00
2023-11-09T10:06:20.190Z,95084.25
2023-11-09T10:08:48.367Z,95089.88
2023-11-09T10:11:15.210Z,95073.91
2023-11-09T10:13:44.555Z,95077.41
2023-11-09T10:16:11.346Z,95074.53
2023-11-09T10:18:38.204Z,95079.94
2023-11-09T10:21:05.490Z,95074.13
2023-11-09T10:23:32.339Z,95069.31
2023-11-09T10:26:01.307Z,95060.91
2023-11-09T10:28:28.259Z,95061.69
2023-11-09T10:30:54.973Z,95058.41
2023-11-09T10:33:23.243Z,95063.00
2023-11-09T10:35:50.131Z,95064.63
2023-11-09T10:38:17.680Z,95060.78
2023-11-09T10:41:10.216Z,95056.38
2023-11-09T10:43:32.838Z,95050.38
2023-11-09T10:45:59.968Z,95052.53
2023-11-09T10:48:27.049Z,95051.28
2023-11-09T10:50:53.844Z,95047.34
2023-11-09T10:53:21.850Z,95047.44
2023-11-09T10:55:49.890Z,95042.31
2023-11-09T10:58:17.495Z,95042.94
2023-11-09T11:00:45.634Z,95045.34
2023-11-09T11:03:16.789Z,95040.88
2023-11-09T11:05:45.987Z,95037.06
2023-11-09T11:08:15.806Z,95036.88
2023-11-09T11:10:45.699Z,95035.03
2023-11-09T11:13:13.337Z,95032.25
2023-11-09T11:16:04.098Z,95029.84
2023-11-09T11:18:38.860Z,95027.63
2023-11-09T11:21:17.562Z,95029.44
2023-11-09T11:24:34.984Z,95020.00
2023-11-09T11:27:16.107Z,95021.47
2023-11-09T11:29:46.623Z,95026.47
2023-11-09T11:32:23.283Z,95019.78
2023-11-09T11:34:51.546Z,95013.16
2023-11-09T11:37:23.777Z,95014.00
2023-11-09T11:39:52.555Z,95011.56
2023-11-09T11:42:20.127Z,95009.97
2023-11-09T11:44:53.756Z,95002.59
2023-11-09T11:47:24.173Z,95010.84
2023-11-09T11:49:51.387Z,95013.72
2023-11-09T11:52:18.948Z,95000.38
2023-11-09T11:54:45.770Z,95005.63
2023-11-09T11:57:12.989Z,94998.56
2023-11-09T11:59:40.245Z,94997.16
2023-11-09T12:02:08.949Z,94998.97
2023-11-09T12:04:37.109Z,94996.56
2023-11-09T12:07:08.173Z,94988.47
2023-11-09T12:09:34.893Z,95000.81
2023-11-09T12:12:01.687Z,94996.56
2023-11-09T12:14:28.500Z,94987.69
2023-11-09T12:16:55.289Z,94987.88
2023-11-09T12:19:22.968Z,94983.44
2023-11-09T12:21:51.122Z,94980.59
2023-11-09T12:24:21.300Z,94974.53
2023-11-09T12:26:48.041Z,94970.53
2023-11-09T12:29:15.487Z,94974.16
2023-11-09T12:31:42.294Z,94966.50
2023-11-09T12:34:10.613Z,94953.97
2023-11-09T12:36:39.179Z,94960.84
2023-11-09T12:41:52.306Z,94947.13
2023-11-09T12:44:21.131Z,94953.97
2023-11-09T12:46:47.925Z,94948.09
2023-11-09T12:49:15.493Z,94943.09
2023-11-09T12:51:42.292Z,94940.63
2023-11-09T12:54:10.425Z,94935.56
2023-11-09T12:56:37.250Z,94936.13
2023-11-09T12:59:06.082Z,94934.09
2023-11-09T13:01:32.952Z,94934.91
2023-11-09T13:03:59.807Z,94926.03
2023-11-09T13:06:26.634Z,94925.41
2023-11-09T13:08:53.387Z,94922.00
2023-11-09T13:11:21.584Z,94927.25
2023-11-09T13:13:48.363Z,94919.97
2023-11-09T13:16:15.250Z,94920.53
2023-11-09T13:18:42.090Z,94918.72
2023-11-09T13:21:09.456Z,94920.34
2023-11-09T13:23:36.233Z,94905.59
2023-11-09T13:26:02.980Z,94907.03
2023-11-09T13:28:31.241Z,94922.97
2023-11-09T13:30:58.007Z,94911.47
2023-11-09T13:33:25.647Z,94912.28
2023-11-09T13:35:52.454Z,94909.03
2023-11-09T13:38:19.246Z,94911.03
2023-11-09T13:40:46.063Z,94914.25
2023-11-09T13:43:12.794Z,94915.06
2023-11-09T13:45:41.249Z,94914.25
2023-11-09T13:48:07.988Z,94906.41
2023-11-09T13:50:34.835Z,94905.91
2023-11-09T13:53:03.292Z,94900.47
2023-11-09T13:55:31.408Z,94899.84
2023-11-09T13:57:58.188Z,94896.63
2023-11-09T14:00:24.962Z,94895.00
2023-11-09T14:02:53.112Z,94899.78
2023-11-09T14:05:20.155Z,94898.97
2023-11-09T14:07:47.017Z,94904.59
2023-11-09T14:10:14.439Z,94900.34
2023-11-09T14:12:42.249Z,94896.16
2023-11-09T14:15:09.390Z,94886.03
2023-11-09T14:17:36.222Z,94886.44
2023-11-09T14:20:05.051Z,94881.97
2023-11-09T14:22:31.816Z,94873.97
2023-11-09T14:24:58.697Z,94877.63
2023-11-09T14:27:25.600Z,94873.59
2023-11-09T14:29:52.911Z,94864.34
2023-11-09T14:32:19.645Z,94861.56
2023-11-09T14:34:46.526Z,94857.53
2023-11-09T14:37:14.756Z,94862.59
2023-11-09T14:39:41.524Z,94856.38
2023-11-09T14:42:08.653Z,94850.53
2023-11-09T14:44:39.753Z,94859.22
2023-11-09T14:47:07.639Z,94858.00
2023-11-09T14:49:34.757Z,94863.66
2023-11-09T14:52:01.575Z,94863.06
2023-11-09T14:54:29.788Z,94865.69
2023-11-09T14:56:56.733Z,94857.63
2023-11-09T14:59:23.507Z,94857.19
2023-11-09T15:01:50.292Z,94849.16
2023-11-09T15:04:17.441Z,94858.81
2023-11-09T15:06:44.231Z,94861.25
2023-11-09T15:09:11.274Z,94858.44
2023-11-09T15:11:39.446Z,94857.63
2023-11-09T15:14:06.215Z,94856.22
2023-11-09T15:16:32.937Z,94848.56
2023-11-09T15:18:59.784Z,94849.56
2023-11-09T15:21:26.542Z,94851.56
2023-11-09T15:23:53.288Z,94844.31
2023-11-09T15:26:20.266Z,94847.53
2023-11-09T15:28:49.653Z,94850.16
2023-11-09T15:31:16.488Z,94850.34
2023-11-09T15:33:43.316Z,94847.94
2023-11-09T15:36:10.035Z,94847.53
2023-11-09T15:38:36.769Z,94851.38
2023-11-09T15:41:18.270Z,94848.13
2023-11-09T15:43:50.283Z,94846.72
2023-11-09T15:46:17.299Z,94849.31
2023-11-09T15:48:44.094Z,94841.47
2023-11-09T15:51:11.075Z,94835.22
2023-11-09T15:53:37.853Z,94824.94
2023-11-09T15:56:05.309Z,94832.00
2023-11-09T15:58:32.149Z,94836.59
2023-11-09T16:01:02.427Z,94840.34
2023-11-09T16:03:30.276Z,94846.38
2023-11-09T16:05:57.208Z,94844.34
2023-11-09T16:08:24.051Z,94857.59
2023-11-09T16:10:50.800Z,94858.41
2023-11-09T16:13:17.662Z,94859.84
2023-11-09T16:15:44.420Z,94856.66
2023-11-09T16:18:12.667Z,94845.78
2023-11-09T16:20:39.388Z,94847.63
2023-11-09T16:23:06.157Z,94848.16
2023-11-09T16:25:33.959Z,94848.19
2023-11-09T16:28:00.820Z,94843.19
2023-11-09T16:30:27.668Z,94845.22
2023-11-09T16:32:54.431Z,94848.03
2023-11-09T16:35:22.549Z,94849.44
2023-11-09T16:37:49.387Z,94852.06
2023-11-09T16:40:16.206Z,94847.41
2023-11-09T16:42:43.023Z,94842.59
2023-11-09T16:45:10.565Z,94836.16
2023-11-09T16:47:37.350Z,94836.16
2023-11-09T16:50:04.699Z,94840.59
2023-11-09T16:52:32.852Z,94831.31
2023-11-09T16:54:59.614Z,94840.56
2023-11-09T16:57:26.314Z,94840.97
2023-11-09T16:59:53.099Z,94846.56
2023-11-09T17:02:20.148Z,94848.94
2023-11-09T17:04:47.016Z,94848.75
2023-11-09T17:07:13.757Z,94856.59
2023-11-09T17:09:41.891Z,94859.78
2023-11-09T17:12:08.944Z,94859.56
2023-11-09T17:14:36.186Z,94864.56
2023-11-09T17:17:05.130Z,94861.78
2023-11-09T17:19:31.880Z,94869.59
2023-11-09T17:21:58.628Z,94867.34
2023-11-09T17:24:25.346Z,94867.13
2023-11-09T17:26:53.482Z,94870.22
2023-11-09T17:29:20.302Z,94873.28
2023-11-09T17:31:47.052Z,94880.84
2023-11-09T17:34:13.889Z,94876.72
2023-11-09T17:36:40.576Z,94883.38
2023-11-09T17:39:07.335Z,94889.63
2023-11-09T17:41:34.250Z,94898.63
2023-11-09T17:44:02.424Z,94890.47
2023-11-09T17:46:29.394Z,94887.28
2023-11-09T17:48:56.185Z,94872.41
2023-11-09T17:51:22.946Z,94873.59
2023-11-09T17:53:49.647Z,94873.59
2023-11-09T17:56:16.354Z,94856.72
2023-11-09T17:58:43.184Z,94858.16
2023-11-09T18:01:12.369Z,94868.59
2023-11-09T18:03:42.009Z,94858.31
2023-11-09T18:06:09.364Z,94865.38
2023-11-09T18:08:36.741Z,94862.56
2023-11-09T18:11:04.248Z,94875.03
2023-11-09T18:13:31.501Z,94869.59
2023-11-09T18:15:58.543Z,94871.59
2023-11-09T18:18:27.233Z,94870.56
2023-11-09T18:20:54.353Z,94874.78
2023-11-09T18:23:21.156Z,94873.72
2023-11-09T18:25:48.645Z,94871.91
2023-11-09T18:28:15.500Z,94863.69
2023-11-09T18:30:42.313Z,94865.66
2023-11-09T18:33:09.746Z,94865.06
2023-11-09T18:35:38.693Z,94860.53
2023-11-09T18:38:05.625Z,94867.16
2023-11-09T18:40:32.702Z,94864.38
2023-11-09T18:42:59.657Z,94861.25
2023-11-09T18:45:26.541Z,94861.69
2023-11-09T18:47:53.384Z,94862.06
2023-11-09T18:52:51.709Z,94877.09
2023-11-09T18:55:18.585Z,94877.22
2023-11-09T18:57:45.795Z,94876.66
2023-11-09T19:00:13.335Z,94867.25
2023-11-09T19:04:40.987Z,94872.63
2023-11-09T19:05:27.147Z,94881.97
2023-11-09T19:07:55.333Z,94882.00
2023-11-09T19:10:22.215Z,94881.16
2023-11-09T19:12:49.065Z,94882.78
2023-11-09T19:15:15.901Z,94882.00
2023-11-09T19:17:42.776Z,94880.50
2023-11-09T19:20:10.099Z,94881.81
2023-11-09T19:22:37.920Z,94887.69
2023-11-09T19:25:07.413Z,94883.38
2023-11-09T19:27:34.322Z,94883.03
2023-11-09T19:30:01.760Z,94890.00
2023-11-09T19:32:28.813Z,94881.84
2023-11-09T19:34:55.887Z,94882.78
2023-11-09T19:37:23.093Z,94885.84
2023-11-09T19:39:50.079Z,94889.63
2023-11-09T19:42:18.606Z,94886.56
2023-11-09T19:44:45.668Z,94888.78
2023-11-09T19:47:12.506Z,94883.88
2023-11-09T19:49:39.371Z,94882.66
2023-11-09T19:52:06.781Z,94887.75
2023-11-09T19:54:33.624Z,94886.38
2023-11-09T19:57:00.554Z,94889.19
2023-11-09T19:59:29.788Z,94906.72
2023-11-09T20:01:57.007Z,94899.31
2023-11-09T20:04:24.072Z,94904.84
2023-11-09T20:06:51.317Z,94901.50
2023-11-09T20:09:18.298Z,94902.22
2023-11-09T20:11:45.075Z,94899.34
2023-11-09T20:14:12.140Z,94897.44
2023-11-09T20:16:40.914Z,94905.22
2023-11-09T20:19:07.762Z,94901.50
2023-11-09T20:21:34.579Z,94905.22
2023-11-09T20:24:01.382Z,94903.59
2023-11-09T20:26:28.493Z,94898.50
2023-11-09T20:28:55.314Z,94908.84
2023-11-09T20:31:22.249Z,94903.16
2023-11-09T20:33:50.714Z,94909.44
2023-11-09T20:36:17.607Z,94905.66
2023-11-09T20:38:44.634Z,94906.47
2023-11-09T20:41:11.564Z,94898.31
2023-11-09T20:43:38.674Z,94898.13
2023-11-09T20:46:05.717Z,94894.50
2023-11-09T20:48:34.232Z,94886.22
2023-11-09T20:51:02.701Z,94889.84
2023-11-09T20:53:29.884Z,94889.00
2023-11-09T20:55:56.732Z,94888.75
2023-11-09T20:58:23.737Z,94883.16
2023-11-09T21:00:50.711Z,94880.75
2023-11-09T21:03:17.893Z,94877.56
2023-11-09T21:05:44.928Z,94878.38
2023-11-09T21:08:14.936Z,94878.38
2023-11-09T21:10:41.964Z,94869.50
2023-11-09T21:13:09.175Z,94865.09
2023-11-09T21:15:36.229Z,94870.31
2023-11-09T21:18:03.347Z,94865.47
2023-11-09T21:20:30.286Z,94867.09
2023-11-09T21:22:57.066Z,94864.81
2023-11-09T21:25:25.477Z,94859.03
2023-11-09T21:27:52.725Z,94864.44
2023-11-09T21:30:20.094Z,94856.69
2023-11-09T21:32:47.618Z,94854.09
2023-11-09T21:35:15.274Z,94851.22
2023-11-09T21:37:42.428Z,94850.09
2023-11-09T21:40:10.578Z,94846.94
2023-11-09T21:42:38.953Z,94851.19
2023-11-09T21:45:07.264Z,94846.53
2023-11-09T21:47:34.127Z,94842.16
2023-11-09T21:50:01.044Z,94834.50
2023-11-09T21:52:27.878Z,94825.69
2023-11-09T21:54:54.695Z,94820.81
2023-11-09T21:57:21.916Z,94806.38
2023-11-09T21:59:50.301Z,94808.81
2023-11-09T22:02:17.243Z,94812.88
2023-11-09T22:04:44.128Z,94793.16
2023-11-09T22:07:11.015Z,94783.31
2023-11-09T22:09:38.190Z,94773.84
2023-11-09T22:12:06.325Z,94764.63
2023-11-09T22:14:36.719Z,94772.63
2023-11-09T22:17:04.988Z,94770.41
2023-11-09T22:19:31.821Z,94771.00
2023-11-09T22:21:58.616Z,94771.38
2023-11-09T22:24:25.446Z,94770.09
2023-11-09T22:26:52.226Z,94765.03
2023-11-09T22:29:19.057Z,94763.81
2023-11-09T22:31:45.858Z,94761.19
2023-11-09T22:34:16.329Z,94752.56
2023-11-09T22:36:43.196Z,94754.34
2023-11-09T22:39:10.053Z,94754.34
2023-11-09T22:41:37.410Z,94743.31
2023-11-09T22:44:04.460Z,94743.91
2023-11-09T22:46:31.371Z,94746.53
2023-11-09T22:48:58.270Z,94741.28
2023-11-09T22:51:26.730Z,94741.69
2023-11-09T22:53:53.753Z,94737.66
2023-11-09T22:56:20.565Z,94734.44
2023-11-09T22:58:47.446Z,94723.31
2023-11-09T23:01:24.393Z,94721.31
2023-11-09T23:03:51.537Z,94717.69
2023-11-09T23:06:18.671Z,94709.19
2023-11-09T23:08:47.088Z,94702.56
2023-11-09T23:11:14.358Z,94698.31
2023-11-09T23:13:41.692Z,94698.69
2023-11-09T23:16:08.567Z,94691.22
2023-11-09T23:18:36.880Z,94694.63
2023-11-09T23:21:04.310Z,94693.56
2023-11-09T23:23:31.772Z,94695.50
2023-11-09T23:26:00.046Z,94693.66
2023-11-09T23:28:26.888Z,94683.59
2023-11-09T23:30:53.805Z,94675.53
2023-11-09T23:33:20.717Z,94666.28
2023-11-09T23:35:47.614Z,94663.63
2023-11-09T23:38:14.516Z,94661.16
2023-11-09T23:40:41.821Z,94658.94
2023-11-09T23:43:10.638Z,94658.06
2023-11-09T23:45:37.524Z,94661.69
2023-11-09T23:48:12.263Z,94654.84
2023-11-09T23:50:40.126Z,94650.78
2023-11-09T23:53:06.920Z,94648.16
2023-11-09T23:55:33.691Z,94647.09
2023-11-09T23:58:00.541Z,94641.66
